sensor_id;sensor_type;location;lat;lon;timestamp;pressure;altitude;pressure_sealevel;temperature;humidity
76496;BME280;65329;52.544;4.662;2023-05-01T00:01:33;-18597.69;;;-139.74;0.00
76496;BME280;65329;52.544;4.662;2023-05-01T00:04:00;-18597.69;;;-139.74;0.00
76496;BME280;65329;52.544;4.662;2023-05-01T00:06:27;-18597.69;;;-139.74;0.00
76496;BME280;65329;52.544;4.662;2023-05-01T00:08:54;-18597.69;;;-139.74;0.00
76496;BME280;65329;52.544;4.662;2023-05-01T00:11:21;-18597.69;;;-139.74;0.00
76496;BME280;65329;52.544;4.662;2023-05-01T00:13:48;-18597.69;;;-139.74;0.00
76496;BME280;65329;52.544;4.662;2023-05-01T00:16:15;-18597.69;;;-139.74;0.00
76496;BME280;65329;52.544;4.662;2023-05-01T00:18:43;-18597.69;;;-139.74;0.00
76496;BME280;65329;52.544;4.662;2023-05-01T00:21:10;-18597.69;;;-139.74;0.00
76496;BME280;65329;52.544;4.662;2023-05-01T00:23:37;-18597.69;;;-139.74;0.00
76496;BME280;65329;52.544;4.662;2023-05-01T00:26:04;-18597.69;;;-139.74;0.00
76496;BME280;65329;52.544;4.662;2023-05-01T00:28:31;-18597.69;;;-139.74;0.00
76496;BME280;65329;52.544;4.662;2023-05-01T00:30:58;-18597.69;;;-139.74;0.00
76496;BME280;65329;52.544;4.662;2023-05-01T00:33:25;-18597.69;;;-139.74;0.00
76496;BME280;65329;52.544;4.662;2023-05-01T00:35:52;-18597.69;;;-139.74;0.00
76496;BME280;65329;52.544;4.662;2023-05-01T00:38:19;-18597.69;;;-139.74;0.00
76496;BME280;65329;52.544;4.662;2023-05-01T00:40:49;-18597.69;;;-139.74;0.00
76496;BME280;65329;52.544;4.662;2023-05-01T00:43:16;-18597.69;;;-139.74;0.00
76496;BME280;65329;52.544;4.662;2023-05-01T00:45:44;-18597.69;;;-139.74;0.00
76496;BME280;65329;52.544;4.662;2023-05-01T00:48:13;-18597.69;;;-139.74;0.00
76496;BME280;65329;52.544;4.662;2023-05-01T00:50:42;-18597.69;;;-139.74;0.00
76496;BME280;65329;52.544;4.662;2023-05-01T00:53:10;-18597.69;;;-139.74;0.00
76496;BME280;65329;52.544;4.662;2023-05-01T00:55:41;-18597.69;;;-139.74;0.00
76496;BME280;65329;52.544;4.662;2023-05-01T00:58:09;-18597.69;;;-139.74;0.00
76496;BME280;65329;52.544;4.662;2023-05-01T01:00:36;-18597.69;;;-139.74;0.00
76496;BME280;65329;52.544;4.662;2023-05-01T01:03:04;-18597.69;;;-139.74;0.00
76496;BME280;65329;52.544;4.662;2023-05-01T01:05:35;-18597.69;;;-139.74;0.00
76496;BME280;65329;52.544;4.662;2023-05-01T01:08:27;-18597.69;;;-139.74;0.00
76496;BME280;65329;52.544;4.662;2023-05-01T01:11:14;-18597.69;;;-139.74;0.00
76496;BME280;65329;52.544;4.662;2023-05-01T01:14:02;-18597.69;;;-139.74;0.00
76496;BME280;65329;52.544;4.662;2023-05-01T01:17:12;-18597.69;;;-139.74;0.00
76496;BME280;65329;52.544;4.662;2023-05-01T01:20:02;-18597.69;;;-139.74;0.00
76496;BME280;65329;52.544;4.662;2023-05-01T01:22:32;-18597.69;;;-139.74;0.00
76496;BME280;65329;52.544;4.662;2023-05-01T01:25:28;-18597.69;;;-139.74;0.00
76496;BME280;65329;52.544;4.662;2023-05-01T01:31:19;-18597.69;;;-139.74;0.00
76496;BME280;65329;52.544;4.662;2023-05-01T01:34:07;-18597.69;;;-139.74;0.00
76496;BME280;65329;52.544;4.662;2023-05-01T01:42:17;-18597.69;;;-139.74;0.00
76496;BME280;65329;52.544;4.662;2023-05-01T01:44:54;-18597.69;;;-139.74;0.00
76496;BME280;65329;52.544;4.662;2023-05-01T01:47:25;-18597.69;;;-139.74;0.00
76496;BME280;65329;52.544;4.662;2023-05-01T01:49:55;-18597.69;;;-139.74;0.00
76496;BME280;65329;52.544;4.662;2023-05-01T01:52:23;-18597.69;;;-139.74;0.00
76496;BME280;65329;52.544;4.662;2023-05-01T01:54:55;-18597.69;;;-139.74;0.00
76496;BME280;65329;52.544;4.662;2023-05-01T01:57:24;-18597.69;;;-139.74;0.00
76496;BME280;65329;52.544;4.662;2023-05-01T01:59:54;-18597.69;;;-139.74;0.00
76496;BME280;65329;52.544;4.662;2023-05-01T02:02:22;-18597.69;;;-139.74;0.00
76496;BME280;65329;52.544;4.662;2023-05-01T02:04:50;-18597.69;;;-139.74;0.00
76496;BME280;65329;52.544;4.662;2023-05-01T02:07:20;-18597.69;;;-139.74;0.00
76496;BME280;65329;52.544;4.662;2023-05-01T02:09:50;-18597.69;;;-139.74;0.00
76496;BME280;65329;52.544;4.662;2023-05-01T02:12:19;-18597.69;;;-139.74;0.00
76496;BME280;65329;52.544;4.662;2023-05-01T02:14:47;-18597.69;;;-139.74;0.00
76496;BME280;65329;52.544;4.662;2023-05-01T02:17:15;-18597.69;;;-139.74;0.00
76496;BME280;65329;52.544;4.662;2023-05-01T02:19:46;-18597.69;;;-139.74;0.00
76496;BME280;65329;52.544;4.662;2023-05-01T02:22:14;-18597.69;;;-139.74;0.00
76496;BME280;65329;52.544;4.662;2023-05-01T02:24:42;-18597.69;;;-139.74;0.00
76496;BME280;65329;52.544;4.662;2023-05-01T02:27:14;-18597.69;;;-139.74;0.00
76496;BME280;65329;52.544;4.662;2023-05-01T02:29:42;-18597.69;;;-139.74;0.00
76496;BME280;65329;52.544;4.662;2023-05-01T02:32:10;-18597.69;;;-139.74;0.00
76496;BME280;65329;52.544;4.662;2023-05-01T02:34:37;-18597.69;;;-139.74;0.00
76496;BME280;65329;52.544;4.662;2023-05-01T02:37:05;-18597.69;;;-139.74;0.00
76496;BME280;65329;52.544;4.662;2023-05-01T02:39:33;-18597.69;;;-139.74;0.00
76496;BME280;65329;52.544;4.662;2023-05-01T02:42:01;-18597.69;;;-139.74;0.00
76496;BME280;65329;52.544;4.662;2023-05-01T02:44:39;-18597.69;;;-139.74;0.00
76496;BME280;65329;52.544;4.662;2023-05-01T02:47:09;-18597.69;;;-139.74;0.00
76496;BME280;65329;52.544;4.662;2023-05-01T02:49:39;-18597.69;;;-139.74;0.00
76496;BME280;65329;52.544;4.662;2023-05-01T02:52:11;-18597.69;;;-139.74;0.00
76496;BME280;65329;52.544;4.662;2023-05-01T02:54:39;-18597.69;;;-139.74;0.00
76496;BME280;65329;52.544;4.662;2023-05-01T02:57:06;-18597.69;;;-139.74;0.00
76496;BME280;65329;52.544;4.662;2023-05-01T02:59:35;-18597.69;;;-139.74;0.00
76496;BME280;65329;52.544;4.662;2023-05-01T03:02:03;-18597.69;;;-139.74;0.00
76496;BME280;65329;52.544;4.662;2023-05-01T03:04:31;-18597.69;;;-139.74;0.00
76496;BME280;65329;52.544;4.662;2023-05-01T03:06:59;-18597.69;;;-139.74;0.00
76496;BME280;65329;52.544;4.662;2023-05-01T03:09:27;-18597.69;;;-139.74;0.00
76496;BME280;65329;52.544;4.662;2023-05-01T03:11:54;-18597.69;;;-139.74;0.00
76496;BME280;65329;52.544;4.662;2023-05-01T03:14:22;-18597.69;;;-139.74;0.00
76496;BME280;65329;52.544;4.662;2023-05-01T03:16:50;-18597.69;;;-139.74;0.00
76496;BME280;65329;52.544;4.662;2023-05-01T03:19:20;-18597.69;;;-139.74;0.00
76496;BME280;65329;52.544;4.662;2023-05-01T03:21:47;-18597.69;;;-139.74;0.00
76496;BME280;65329;52.544;4.662;2023-05-01T03:24:15;-18597.69;;;-139.74;0.00
76496;BME280;65329;52.544;4.662;2023-05-01T03:26:42;-18597.69;;;-139.74;0.00
76496;BME280;65329;52.544;4.662;2023-05-01T03:29:09;-18597.69;;;-139.74;0.00
76496;BME280;65329;52.544;4.662;2023-05-01T03:31:39;-18597.69;;;-139.74;0.00
76496;BME280;65329;52.544;4.662;2023-05-01T03:34:08;-18597.69;;;-139.74;0.00
76496;BME280;65329;52.544;4.662;2023-05-01T03:36:35;-18597.69;;;-139.74;0.00
76496;BME280;65329;52.544;4.662;2023-05-01T03:39:04;-18597.69;;;-139.74;0.00
76496;BME280;65329;52.544;4.662;2023-05-01T03:41:50;-18597.69;;;-139.74;0.00
76496;BME280;65329;52.544;4.662;2023-05-01T03:44:27;-18597.69;;;-139.74;0.00
76496;BME280;65329;52.544;4.662;2023-05-01T03:46:54;-18597.69;;;-139.74;0.00
76496;BME280;65329;52.544;4.662;2023-05-01T03:49:26;-18597.69;;;-139.74;0.00
76496;BME280;65329;52.544;4.662;2023-05-01T03:51:54;-18597.69;;;-139.74;0.00
76496;BME280;65329;52.544;4.662;2023-05-01T03:54:21;-18597.69;;;-139.74;0.00
76496;BME280;65329;52.544;4.662;2023-05-01T03:57:02;-18597.69;;;-139.74;0.00
76496;BME280;65329;52.544;4.662;2023-05-01T03:59:29;-18597.69;;;-139.74;0.00
76496;BME280;65329;52.544;4.662;2023-05-01T04:01:58;-18597.69;;;-139.74;0.00
76496;BME280;65329;52.544;4.662;2023-05-01T04:04:27;-18597.69;;;-139.74;0.00
76496;BME280;65329;52.544;4.662;2023-05-01T04:06:58;-18597.69;;;-139.74;0.00
76496;BME280;65329;52.544;4.662;2023-05-01T04:09:25;-18597.69;;;-139.74;0.00
76496;BME280;65329;52.544;4.662;2023-05-01T04:11:52;-18597.69;;;-139.74;0.00
76496;BME280;65329;52.544;4.662;2023-05-01T04:14:19;-18597.69;;;-139.74;0.00
76496;BME280;65329;52.544;4.662;2023-05-01T04:16:48;-18597.69;;;-139.74;0.00
76496;BME280;65329;52.544;4.662;2023-05-01T04:19:15;-18597.69;;;-139.74;0.00
76496;BME280;65329;52.544;4.662;2023-05-01T04:21:45;-18597.69;;;-139.74;0.00
76496;BME280;65329;52.544;4.662;2023-05-01T04:24:12;-18597.69;;;-139.74;0.00
76496;BME280;65329;52.544;4.662;2023-05-01T04:26:40;-18597.69;;;-139.74;0.00
76496;BME280;65329;52.544;4.662;2023-05-01T04:29:08;-18597.69;;;-139.74;0.00
76496;BME280;65329;52.544;4.662;2023-05-01T04:31:36;-18597.69;;;-139.74;0.00
76496;BME280;65329;52.544;4.662;2023-05-01T04:34:03;-18597.69;;;-139.74;0.00
76496;BME280;65329;52.544;4.662;2023-05-01T04:36:30;-18597.69;;;-139.74;0.00
76496;BME280;65329;52.544;4.662;2023-05-01T04:38:58;-18597.69;;;-139.74;0.00
76496;BME280;65329;52.544;4.662;2023-05-01T04:41:25;-18597.69;;;-139.74;0.00
76496;BME280;65329;52.544;4.662;2023-05-01T04:43:52;-18597.69;;;-139.74;0.00
76496;BME280;65329;52.544;4.662;2023-05-01T04:46:20;-18597.69;;;-139.74;0.00
76496;BME280;65329;52.544;4.662;2023-05-01T04:48:46;-18597.69;;;-139.74;0.00
76496;BME280;65329;52.544;4.662;2023-05-01T04:51:13;-18597.69;;;-139.74;0.00
76496;BME280;65329;52.544;4.662;2023-05-01T04:53:40;-18597.69;;;-139.74;0.00
76496;BME280;65329;52.544;4.662;2023-05-01T04:56:16;-18597.69;;;-139.74;0.00
76496;BME280;65329;52.544;4.662;2023-05-01T04:58:48;-18597.69;;;-139.74;0.00
76496;BME280;65329;52.544;4.662;2023-05-01T05:01:19;-18597.69;;;-139.74;0.00
76496;BME280;65329;52.544;4.662;2023-05-01T05:03:46;-18597.69;;;-139.74;0.00
76496;BME280;65329;52.544;4.662;2023-05-01T05:06:15;-18597.69;;;-139.74;0.00
76496;BME280;65329;52.544;4.662;2023-05-01T05:08:45;-17809.88;;;-139.74;0.00
76496;BME280;65329;52.544;4.662;2023-05-01T05:11:11;-18596.16;;;-139.74;0.00
76496;BME280;65329;52.544;4.662;2023-05-01T05:13:49;-18597.69;;;-139.74;0.00
76496;BME280;65329;52.544;4.662;2023-05-01T05:16:16;-18597.69;;;-139.74;0.00
76496;BME280;65329;52.544;4.662;2023-05-01T05:18:43;-18597.69;;;-139.74;0.00
76496;BME280;65329;52.544;4.662;2023-05-01T05:21:16;-18597.69;;;-139.74;0.00
76496;BME280;65329;52.544;4.662;2023-05-01T05:23:48;-18597.69;;;-139.74;0.00
76496;BME280;65329;52.544;4.662;2023-05-01T05:26:15;-18596.16;;;-139.74;0.00
76496;BME280;65329;52.544;4.662;2023-05-01T05:28:42;-18596.16;;;-139.74;0.00
76496;BME280;65329;52.544;4.662;2023-05-01T05:31:09;-18597.69;;;-139.74;0.00
76496;BME280;65329;52.544;4.662;2023-05-01T05:33:36;-18596.16;;;-139.74;0.00
76496;BME280;65329;52.544;4.662;2023-05-01T05:36:05;-18071.97;;;-139.74;0.00
76496;BME280;65329;52.544;4.662;2023-05-01T05:38:38;-18597.69;;;-139.74;0.00
76496;BME280;65329;52.544;4.662;2023-05-01T05:41:09;-18596.16;;;-139.74;0.00
76496;BME280;65329;52.544;4.662;2023-05-01T05:43:35;-18597.69;;;-139.74;0.00
76496;BME280;65329;52.544;4.662;2023-05-01T05:46:06;-18597.69;;;-139.74;0.00
76496;BME280;65329;52.544;4.662;2023-05-01T05:48:35;-18597.69;;;-139.74;0.00
76496;BME280;65329;52.544;4.662;2023-05-01T05:51:02;-18597.69;;;-139.74;0.00
76496;BME280;65329;52.544;4.662;2023-05-01T05:53:29;-18597.69;;;-139.74;0.00
76496;BME280;65329;52.544;4.662;2023-05-01T05:55:57;-18597.69;;;-139.74;0.00
76496;BME280;65329;52.544;4.662;2023-05-01T05:58:24;-18597.69;;;-139.74;0.00
76496;BME280;65329;52.544;4.662;2023-05-01T06:00:52;-18597.69;;;-139.74;0.00
76496;BME280;65329;52.544;4.662;2023-05-01T06:03:21;-18597.69;;;-139.74;0.00
76496;BME280;65329;52.544;4.662;2023-05-01T06:05:51;-18597.69;;;-139.74;0.00
76496;BME280;65329;52.544;4.662;2023-05-01T06:08:18;-18597.69;;;-139.74;0.00
76496;BME280;65329;52.544;4.662;2023-05-01T06:10:46;-18597.69;;;-139.74;0.00
76496;BME280;65329;52.544;4.662;2023-05-01T06:13:15;-18597.69;;;-139.74;0.00
76496;BME280;65329;52.544;4.662;2023-05-01T06:15:44;-18597.69;;;-139.74;0.00
76496;BME280;65329;52.544;4.662;2023-05-01T06:18:12;-18597.69;;;-139.74;0.00
76496;BME280;65329;52.544;4.662;2023-05-01T06:20:45;-18597.69;;;-139.74;0.00
76496;BME280;65329;52.544;4.662;2023-05-01T06:23:14;-18597.69;;;-139.74;0.00
76496;BME280;65329;52.544;4.662;2023-05-01T06:25:49;-18597.69;;;-139.74;0.00
76496;BME280;65329;52.544;4.662;2023-05-01T06:28:17;-18597.69;;;-139.74;0.00
76496;BME280;65329;52.544;4.662;2023-05-01T06:30:44;-18597.69;;;-139.74;0.00
76496;BME280;65329;52.544;4.662;2023-05-01T06:33:14;-18597.69;;;-139.74;0.00
76496;BME280;65329;52.544;4.662;2023-05-01T06:35:43;-18597.69;;;-139.74;0.00
76496;BME280;65329;52.544;4.662;2023-05-01T06:38:20;-18597.69;;;-139.74;0.00
76496;BME280;65329;52.544;4.662;2023-05-01T06:40:47;-18597.69;;;-139.74;0.00
76496;BME280;65329;52.544;4.662;2023-05-01T06:43:14;-18597.69;;;-139.74;0.00
76496;BME280;65329;52.544;4.662;2023-05-01T06:45:42;-18597.69;;;-139.74;0.00
76496;BME280;65329;52.544;4.662;2023-05-01T06:48:09;-18597.69;;;-139.74;0.00
76496;BME280;65329;52.544;4.662;2023-05-01T06:50:36;-18597.69;;;-139.74;0.00
76496;BME280;65329;52.544;4.662;2023-05-01T06:53:03;-18597.69;;;-139.74;0.00
76496;BME280;65329;52.544;4.662;2023-05-01T06:55:34;-18597.69;;;-139.74;0.00
76496;BME280;65329;52.544;4.662;2023-05-01T06:58:01;-18597.69;;;-139.74;0.00
76496;BME280;65329;52.544;4.662;2023-05-01T07:00:51;-18597.69;;;-139.74;0.00
76496;BME280;65329;52.544;4.662;2023-05-01T07:03:20;-18597.69;;;-139.74;0.00
76496;BME280;65329;52.544;4.662;2023-05-01T07:05:47;-18597.69;;;-139.74;0.00
76496;BME280;65329;52.544;4.662;2023-05-01T07:08:14;-18597.69;;;-139.74;0.00
76496;BME280;65329;52.544;4.662;2023-05-01T07:10:40;-18597.69;;;-139.74;0.00
76496;BME280;65329;52.544;4.662;2023-05-01T07:13:08;-18597.69;;;-139.74;0.00
76496;BME280;65329;52.544;4.662;2023-05-01T07:15:35;-18597.69;;;-139.74;0.00
76496;BME280;65329;52.544;4.662;2023-05-01T07:18:03;-18597.69;;;-139.74;0.00
76496;BME280;65329;52.544;4.662;2023-05-01T07:20:32;-18597.69;;;-139.74;0.00
76496;BME280;65329;52.544;4.662;2023-05-01T07:22:59;-18597.69;;;-139.74;0.00
76496;BME280;65329;52.544;4.662;2023-05-01T07:25:26;-18597.69;;;-139.74;0.00
76496;BME280;65329;52.544;4.662;2023-05-01T07:27:53;-18597.69;;;-139.74;0.00
76496;BME280;65329;52.544;4.662;2023-05-01T07:30:20;-18597.69;;;-139.74;0.00
76496;BME280;65329;52.544;4.662;2023-05-01T07:32:47;-18597.69;;;-139.74;0.00
76496;BME280;65329;52.544;4.662;2023-05-01T07:35:14;-18597.69;;;-139.74;0.00
76496;BME280;65329;52.544;4.662;2023-05-01T07:37:41;-18597.69;;;-139.74;0.00
76496;BME280;65329;52.544;4.662;2023-05-01T07:40:08;-18597.69;;;-139.74;0.00
76496;BME280;65329;52.544;4.662;2023-05-01T07:42:35;-18597.69;;;-139.74;0.00
76496;BME280;65329;52.544;4.662;2023-05-01T07:45:02;-18597.69;;;-139.74;0.00
76496;BME280;65329;52.544;4.662;2023-05-01T07:47:30;-18597.69;;;-139.74;0.00
76496;BME280;65329;52.544;4.662;2023-05-01T07:49:57;-18597.69;;;-139.74;0.00
76496;BME280;65329;52.544;4.662;2023-05-01T07:52:24;-18597.69;;;-139.74;0.00
76496;BME280;65329;52.544;4.662;2023-05-01T07:54:52;-18597.69;;;-139.74;0.00
76496;BME280;65329;52.544;4.662;2023-05-01T07:57:18;-18597.69;;;-139.74;0.00
76496;BME280;65329;52.544;4.662;2023-05-01T07:59:45;-18597.69;;;-139.74;0.00
76496;BME280;65329;52.544;4.662;2023-05-01T08:02:16;-18597.69;;;-139.74;0.00
76496;BME280;65329;52.544;4.662;2023-05-01T08:04:43;-18597.69;;;-139.74;0.00
76496;BME280;65329;52.544;4.662;2023-05-01T08:07:11;-18597.69;;;-139.74;0.00
76496;BME280;65329;52.544;4.662;2023-05-01T08:09:38;-18597.69;;;-139.74;0.00
76496;BME280;65329;52.544;4.662;2023-05-01T08:12:05;-18597.69;;;-139.74;0.00
76496;BME280;65329;52.544;4.662;2023-05-01T08:14:32;-18597.69;;;-139.74;0.00
76496;BME280;65329;52.544;4.662;2023-05-01T08:17:03;-18597.69;;;-139.74;0.00
76496;BME280;65329;52.544;4.662;2023-05-01T08:19:32;-18597.69;;;-139.74;0.00
76496;BME280;65329;52.544;4.662;2023-05-01T08:21:59;-18597.69;;;-139.74;0.00
76496;BME280;65329;52.544;4.662;2023-05-01T08:24:26;-18597.69;;;-139.74;0.00
76496;BME280;65329;52.544;4.662;2023-05-01T08:26:53;-18597.69;;;-139.74;0.00
76496;BME280;65329;52.544;4.662;2023-05-01T08:29:20;-18597.69;;;-139.74;0.00
76496;BME280;65329;52.544;4.662;2023-05-01T08:31:46;-18597.69;;;-139.74;0.00
76496;BME280;65329;52.544;4.662;2023-05-01T08:34:13;-18597.69;;;-139.74;0.00
76496;BME280;65329;52.544;4.662;2023-05-01T08:36:40;-18597.69;;;-139.74;0.00
76496;BME280;65329;52.544;4.662;2023-05-01T08:39:07;-18597.69;;;-139.74;0.00
76496;BME280;65329;52.544;4.662;2023-05-01T08:41:36;-18597.69;;;-139.74;0.00
76496;BME280;65329;52.544;4.662;2023-05-01T08:44:05;-18597.69;;;-139.74;0.00
76496;BME280;65329;52.544;4.662;2023-05-01T08:46:47;-18597.69;;;-139.74;0.00
76496;BME280;65329;52.544;4.662;2023-05-01T08:49:16;-18597.69;;;-139.74;0.00
76496;BME280;65329;52.544;4.662;2023-05-01T08:51:45;-18597.69;;;-139.74;0.00
76496;BME280;65329;52.544;4.662;2023-05-01T08:54:14;-18597.69;;;-139.74;0.00
76496;BME280;65329;52.544;4.662;2023-05-01T08:56:46;-18597.69;;;-139.74;0.00
76496;BME280;65329;52.544;4.662;2023-05-01T08:59:13;-18597.69;;;-139.74;0.00
76496;BME280;65329;52.544;4.662;2023-05-01T09:01:43;-18596.16;;;-139.74;0.00
76496;BME280;65329;52.544;4.662;2023-05-01T09:04:13;-18596.16;;;-139.74;0.00
76496;BME280;65329;52.544;4.662;2023-05-01T09:06:42;-17547.72;;;-139.74;0.00
76496;BME280;65329;52.544;4.662;2023-05-01T09:09:10;-18596.16;;;-139.74;0.00
76496;BME280;65329;52.544;4.662;2023-05-01T09:11:37;-18596.16;;;-139.74;0.00
76496;BME280;65329;52.544;4.662;2023-05-01T09:14:05;-18596.16;;;-139.74;0.00
76496;BME280;65329;52.544;4.662;2023-05-01T09:16:33;-17285.59;;;-139.74;0.00
76496;BME280;65329;52.544;4.662;2023-05-01T09:19:01;-14663.09;;;-139.74;0.00
76496;BME280;65329;52.544;4.662;2023-05-01T09:21:28;19781.28;;;-139.74;0.00
76496;BME280;65329;52.544;4.662;2023-05-01T09:23:57;12783.59;;;-139.74;0.00
76496;BME280;65329;52.544;4.662;2023-05-01T09:26:24;20668.53;;;-139.74;0.00
76496;BME280;65329;52.544;4.662;2023-05-01T09:28:52;27839.97;;;-139.74;0.00
76496;BME280;65329;52.544;4.662;2023-05-01T09:31:28;47629.41;;;-139.74;0.00
76496;BME280;65329;52.544;4.662;2023-05-01T09:34:03;41523.66;;;-139.74;0.00
76496;BME280;65329;52.544;4.662;2023-05-01T09:36:32;44560.78;;;-139.74;0.00
76496;BME280;65329;52.544;4.662;2023-05-01T09:39:00;62209.78;;;-139.74;0.00
76496;BME280;65329;52.544;4.662;2023-05-01T09:41:27;63926.31;;;-139.74;0.00
76496;BME280;65329;52.544;4.662;2023-05-01T09:43:56;54954.63;;;-139.74;0.00
76496;BME280;65329;52.544;4.662;2023-05-01T09:46:25;57517.69;;;-139.74;0.00
76496;BME280;65329;52.544;4.662;2023-05-01T09:49:00;66292.19;;;-139.74;0.00
76496;BME280;65329;52.544;4.662;2023-05-01T09:51:28;61852.34;;;-139.74;0.00
76496;BME280;65329;52.544;4.662;2023-05-01T09:53:57;62502.44;;;-139.74;0.00
76496;BME280;65329;52.544;4.662;2023-05-01T09:56:25;49358.41;;;-139.74;0.00
76496;BME280;65329;52.544;4.662;2023-05-01T09:58:53;51490.44;;;-139.74;0.00
76496;BME280;65329;52.544;4.662;2023-05-01T10:01:36;57141.88;;;-139.74;0.00
76496;BME280;65329;52.544;4.662;2023-05-01T10:04:05;40105.75;;;-139.74;0.00
76496;BME280;65329;52.544;4.662;2023-05-01T10:06:32;41679.63;;;-139.74;0.00
76496;BME280;65329;52.544;4.662;2023-05-01T10:08:59;42944.16;;;-139.74;0.00
76496;BME280;65329;52.544;4.662;2023-05-01T10:11:26;47333.69;;;-139.74;0.00
76496;BME280;65329;52.544;4.662;2023-05-01T10:14:09;54055.44;;;-139.74;0.00
76496;BME280;65329;52.544;4.662;2023-05-01T10:16:37;63493.44;;;-139.74;0.00
76496;BME280;65329;52.544;4.662;2023-05-01T10:19:04;73630.94;;;-139.74;0.00
76496;BME280;65329;52.544;4.662;2023-05-01T10:21:32;83680.69;;;-139.74;0.00
76496;BME280;65329;52.544;4.662;2023-05-01T10:24:01;102504.22;;;-139.74;0.00
76496;BME280;65329;52.544;4.662;2023-05-01T10:26:35;89821.97;;;-139.74;0.00
76496;BME280;65329;52.544;4.662;2023-05-01T10:29:05;80403.56;;;-139.74;0.00
76496;BME280;65329;52.544;4.662;2023-05-01T10:31:32;97642.50;;;-139.74;0.00
76496;BME280;65329;52.544;4.662;2023-05-01T10:34:00;100342.75;;;-139.74;0.00
76496;BME280;65329;52.544;4.662;2023-05-01T10:36:35;78661.06;;;-139.74;0.00
76496;BME280;65329;52.544;4.662;2023-05-01T10:39:05;80848.75;;;-139.74;0.00
76496;BME280;65329;52.544;4.662;2023-05-01T10:42:05;78732.41;;;-139.74;0.00
76496;BME280;65329;52.544;4.662;2023-05-01T10:44:36;65856.97;;;-139.74;0.00
76496;BME280;65329;52.544;4.662;2023-05-01T10:50:07;35618.38;;;-139.74;0.00
76496;BME280;65329;52.544;4.662;2023-05-01T10:55:37;-9150.00;;;-139.74;0.00
76496;BME280;65329;52.544;4.662;2023-05-01T10:58:04;-13351.16;;;-139.74;0.00
76496;BME280;65329;52.544;4.662;2023-05-01T11:00:31;-13088.72;;;-139.74;0.00
76496;BME280;65329;52.544;4.662;2023-05-01T11:08:30;-18596.16;;;-139.74;0.00
76496;BME280;65329;52.544;4.662;2023-05-01T11:10:57;-18334.06;;;-139.74;0.00
76496;BME280;65329;52.544;4.662;2023-05-01T11:14:02;-18597.69;;;-139.74;0.00
76496;BME280;65329;52.544;4.662;2023-05-01T11:19:07;-18597.69;;;-139.74;0.00
76496;BME280;65329;52.544;4.662;2023-05-01T11:21:36;-18597.69;;;-139.74;0.00
76496;BME280;65329;52.544;4.662;2023-05-01T11:24:05;-18597.69;;;-139.74;0.00
76496;BME280;65329;52.544;4.662;2023-05-01T11:26:36;-17809.88;;;-139.74;0.00
76496;BME280;65329;52.544;4.662;2023-05-01T11:29:04;-14400.75;;;-139.74;0.00
76496;BME280;65329;52.544;4.662;2023-05-01T11:31:31;-13613.59;;;-139.74;0.00
76496;BME280;65329;52.544;4.662;2023-05-01T11:33:59;-10463.34;;;-139.74;0.00
76496;BME280;65329;52.544;4.662;2023-05-01T11:36:26;-11513.72;;;-139.74;0.00
76496;BME280;65329;52.544;4.662;2023-05-01T11:38:55;-14138.38;;;-139.74;0.00
76496;BME280;65329;52.544;4.662;2023-05-01T11:41:23;20620.94;;;-139.74;0.00
76496;BME280;65329;52.544;4.662;2023-05-01T11:43:54;62803.47;;;-139.74;0.00
76496;BME280;65329;52.544;4.662;2023-05-01T11:48:49;73268.28;;;-139.74;0.00
76496;BME280;65329;52.544;4.662;2023-05-01T11:51:16;74389.88;;;-139.74;0.00
76496;BME280;65329;52.544;4.662;2023-05-01T11:54:01;69185.03;;;-139.74;0.00
76496;BME280;65329;52.544;4.662;2023-05-01T11:56:29;60619.34;;;-139.74;0.00
76496;BME280;65329;52.544;4.662;2023-05-01T11:59:08;64923.94;;;-139.74;0.00
76496;BME280;65329;52.544;4.662;2023-05-01T12:01:38;60333.09;;;-139.74;0.00
76496;BME280;65329;52.544;4.662;2023-05-01T12:04:06;54654.19;;;-139.74;0.00
76496;BME280;65329;52.544;4.662;2023-05-01T12:06:45;53800.94;;;-139.74;0.00
76496;BME280;65329;52.544;4.662;2023-05-01T12:09:16;57918.56;;;-139.74;0.00
76496;BME280;65329;52.544;4.662;2023-05-01T12:11:44;49741.78;;;-139.74;0.00
76496;BME280;65329;52.544;4.662;2023-05-01T12:14:13;66028.53;;;-139.74;0.00
76496;BME280;65329;52.544;4.662;2023-05-01T12:16:44;62201.41;;;-139.74;0.00
76496;BME280;65329;52.544;4.662;2023-05-01T12:19:13;65189.59;;;-139.74;0.00
76496;BME280;65329;52.544;4.662;2023-05-01T12:21:39;68085.81;;;-139.74;0.00
76496;BME280;65329;52.544;4.662;2023-05-01T12:24:11;77895.00;;;-139.74;0.00
76496;BME280;65329;52.544;4.662;2023-05-01T12:26:40;77435.47;;;-139.74;0.00
76496;BME280;65329;52.544;4.662;2023-05-01T12:29:08;86392.63;;;-139.74;0.00
76496;BME280;65329;52.544;4.662;2023-05-01T12:31:36;91400.88;;;-139.74;0.00
76496;BME280;65329;52.544;4.662;2023-05-01T12:34:11;90798.72;;;-139.74;0.00
76496;BME280;65329;52.544;4.662;2023-05-01T12:36:38;104409.16;;;-139.74;0.00
76496;BME280;65329;52.544;4.662;2023-05-01T12:39:11;116310.81;;;-139.74;0.00
76496;BME280;65329;52.544;4.662;2023-05-01T12:46:59;116310.81;;;-139.74;0.00
76496;BME280;65329;52.544;4.662;2023-05-01T12:49:27;115226.25;;;-139.74;0.00
76496;BME280;65329;52.544;4.662;2023-05-01T12:51:58;113599.94;;;-139.74;0.00
76496;BME280;65329;52.544;4.662;2023-05-01T12:54:29;111974.28;;;-139.74;0.00
76496;BME280;65329;52.544;4.662;2023-05-01T12:57:15;108454.28;;;-139.74;0.00
76496;BME280;65329;52.544;4.662;2023-05-01T12:59:44;108454.28;;;-139.74;0.00
76496;BME280;65329;52.544;4.662;2023-05-01T13:02:14;106830.66;;;-139.74;0.00
76496;BME280;65329;52.544;4.662;2023-05-01T13:04:43;107913.00;;;-139.74;0.00
76496;BME280;65329;52.544;4.662;2023-05-01T13:07:11;104666.88;;;-139.74;0.00
76496;BME280;65329;52.544;4.662;2023-05-01T13:09:38;105748.63;;;-139.74;0.00
76496;BME280;65329;52.544;4.662;2023-05-01T13:12:05;94404.59;;;-139.74;0.00
76496;BME280;65329;52.544;4.662;2023-05-01T13:14:36;89821.97;;;-139.74;0.00
76496;BME280;65329;52.544;4.662;2023-05-01T13:17:07;100883.00;;;-139.74;0.00
76496;BME280;65329;52.544;4.662;2023-05-01T13:19:35;104937.28;;;-139.74;0.00
76496;BME280;65329;52.544;4.662;2023-05-01T13:22:03;110620.06;;;-139.74;0.00
76496;BME280;65329;52.544;4.662;2023-05-01T13:24:39;97912.44;;;-139.74;0.00
76496;BME280;65329;52.544;4.662;2023-05-01T13:27:10;103315.09;;;-139.74;0.00